createdAt,value
2018-06-27T00:02:25.270Z,3.27
2018-06-27T00:04:53.590Z,3.47
2018-06-27T00:07:22.000Z,4.60
2018-06-27T00:09:50.437Z,4.47
2018-06-27T00:12:18.810Z,4.63
2018-06-27T00:14:47.143Z,3.57
2018-06-27T00:17:15.502Z,3.57
2018-06-27T00:19:43.851Z,3.63
2018-06-27T00:22:12.440Z,3.17
2018-06-27T00:24:40.829Z,3.90
2018-06-27T00:27:09.185Z,3.77
2018-06-27T00:29:37.529Z,3.57
2018-06-27T00:32:05.897Z,3.50
2018-06-27T00:34:34.273Z,3.20
2018-06-27T00:37:02.624Z,3.40
2018-06-27T00:39:30.966Z,3.90
2018-06-27T00:41:59.322Z,3.33
2018-06-27T00:44:27.665Z,3.47
2018-06-27T00:46:56.055Z,3.53
2018-06-27T00:49:24.397Z,4.63
2018-06-27T00:51:52.789Z,4.20
2018-06-27T00:54:21.106Z,4.13
2018-06-27T00:56:49.487Z,4.40
2018-06-27T00:59:17.817Z,5.00
2018-06-27T01:01:46.161Z,4.67
2018-06-27T01:04:14.514Z,3.80
2018-06-27T01:06:42.916Z,4.27
2018-06-27T01:09:11.269Z,5.30
2018-06-27T01:11:39.755Z,3.50
2018-06-27T01:14:08.234Z,3.20
2018-06-27T01:16:36.582Z,3.63
2018-06-27T01:19:05.167Z,3.33
2018-06-27T01:21:34.201Z,3.90
2018-06-27T01:24:02.546Z,3.50
2018-06-27T01:26:30.925Z,3.87
2018-06-27T01:28:59.273Z,3.90
2018-06-27T01:31:27.613Z,4.27
2018-06-27T01:33:55.977Z,3.70
2018-06-27T01:36:24.310Z,4.87
2018-06-27T01:38:52.669Z,4.03
2018-06-27T01:41:21.001Z,4.30
2018-06-27T01:43:49.393Z,4.63
2018-06-27T01:46:17.753Z,3.77
2018-06-27T01:48:46.186Z,4.30
2018-06-27T01:51:14.557Z,4.33
2018-06-27T01:53:42.897Z,3.77
2018-06-27T01:56:11.709Z,3.20
2018-06-27T01:58:40.050Z,3.60
2018-06-27T02:01:08.373Z,4.07
2018-06-27T02:03:36.725Z,4.13
2018-06-27T02:06:05.074Z,4.87
2018-06-27T02:08:33.467Z,4.17
2018-06-27T02:11:01.970Z,4.23
2018-06-27T02:13:30.330Z,5.30
2018-06-27T02:15:58.646Z,4.90
2018-06-27T02:18:27.014Z,5.37
2018-06-27T02:20:55.338Z,4.90
2018-06-27T02:23:23.804Z,4.70
2018-06-27T02:25:52.185Z,5.43
2018-06-27T02:28:20.562Z,4.30
2018-06-27T02:30:48.866Z,4.37
2018-06-27T02:33:22.501Z,4.43
2018-06-27T02:35:50.977Z,4.27
2018-06-27T02:38:19.424Z,4.33
2018-06-27T02:40:47.771Z,4.30
2018-06-27T02:43:16.109Z,4.37
2018-06-27T02:45:44.429Z,4.10
2018-06-27T02:48:12.778Z,3.77
2018-06-27T02:50:41.140Z,4.13
2018-06-27T02:53:09.573Z,4.60
2018-06-27T02:55:37.906Z,4.80
2018-06-27T02:58:06.642Z,5.17
2018-06-27T03:00:35.019Z,4.43
2018-06-27T03:03:03.334Z,4.30
2018-06-27T03:05:31.731Z,4.00
2018-06-27T03:08:00.094Z,4.23
2018-06-27T03:10:28.503Z,4.50
2018-06-27T03:12:56.853Z,4.93
2018-06-27T03:15:25.290Z,4.93
2018-06-27T03:17:53.786Z,4.97
2018-06-27T03:20:22.228Z,4.00
2018-06-27T03:22:50.525Z,4.93
2018-06-27T03:25:18.919Z,5.83
2018-06-27T03:27:47.258Z,6.23
2018-06-27T03:30:15.659Z,4.80
2018-06-27T03:32:43.729Z,5.07
2018-06-27T03:35:12.124Z,4.80
2018-06-27T03:37:40.499Z,5.97
2018-06-27T03:40:08.916Z,4.90
2018-06-27T03:42:37.305Z,4.13
2018-06-27T03:45:05.707Z,5.07
2018-06-27T03:47:34.061Z,6.13
2018-06-27T03:50:02.439Z,8.43
2018-06-27T03:52:30.825Z,6.67
2018-06-27T03:54:59.288Z,6.30
2018-06-27T03:57:27.630Z,5.00
2018-06-27T03:59:56.000Z,6.07
2018-06-27T04:02:24.366Z,6.63
2018-06-27T04:04:52.764Z,6.27
2018-06-27T04:07:21.166Z,5.23
2018-06-27T04:09:49.567Z,5.20
2018-06-27T04:12:17.937Z,4.60
2018-06-27T04:14:46.296Z,5.87
2018-06-27T04:17:14.685Z,5.27
2018-06-27T04:19:43.077Z,6.83
2018-06-27T04:22:11.491Z,5.13
2018-06-27T04:24:40.261Z,5.57
2018-06-27T04:27:08.616Z,4.93
2018-06-27T04:29:37.038Z,5.30
2018-06-27T04:32:05.585Z,5.97
2018-06-27T04:34:33.961Z,4.80
2018-06-27T04:37:02.515Z,5.70
2018-06-27T04:39:30.885Z,5.07
2018-06-27T04:41:59.231Z,6.33
2018-06-27T04:44:27.575Z,5.27
2018-06-27T04:46:55.981Z,8.73
2018-06-27T04:49:24.355Z,5.93
2018-06-27T04:51:52.751Z,6.77
2018-06-27T04:54:27.583Z,6.13
2018-06-27T04:56:56.250Z,5.60
2018-06-27T04:59:24.800Z,6.23
2018-06-27T05:01:53.360Z,6.37
2018-06-27T05:04:21.821Z,6.10
2018-06-27T05:06:49.941Z,5.07
2018-06-27T05:09:18.281Z,5.00
2018-06-27T05:11:46.635Z,4.53
2018-06-27T05:14:14.988Z,5.13
2018-06-27T05:16:43.411Z,6.20
2018-06-27T05:19:11.777Z,5.80
2018-06-27T05:21:40.174Z,6.40
2018-06-27T05:24:08.528Z,6.63
2018-06-27T05:26:37.172Z,7.17
2018-06-27T05:29:05.598Z,7.13
2018-06-27T05:31:33.977Z,9.40
2018-06-27T05:34:02.361Z,6.43
2018-06-27T05:36:30.730Z,8.20
2018-06-27T05:38:59.084Z,8.50
2018-06-27T05:41:27.427Z,5.93
2018-06-27T05:43:55.770Z,9.80
2018-06-27T05:46:24.193Z,7.03
2018-06-27T05:48:54.153Z,8.23
2018-06-27T05:51:22.664Z,4.87
2018-06-27T05:53:51.017Z,4.73
2018-06-27T05:56:19.369Z,4.90
2018-06-27T05:58:47.775Z,5.90
2018-06-27T06:01:16.205Z,7.13
2018-06-27T06:03:44.697Z,5.77
2018-06-27T06:06:13.113Z,6.30
2018-06-27T06:08:41.446Z,6.00
2018-06-27T06:11:09.928Z,6.20
2018-06-27T06:13:38.267Z,6.80
2018-06-27T06:16:06.838Z,6.73
2018-06-27T06:18:35.218Z,6.93
2018-06-27T06:21:03.614Z,7.57
2018-06-27T06:23:31.933Z,6.03
2018-06-27T06:26:00.321Z,6.67
2018-06-27T06:28:28.722Z,4.80
2018-06-27T06:30:57.089Z,7.03
2018-06-27T06:33:25.431Z,5.70
2018-06-27T06:35:53.780Z,6.47
2018-06-27T06:38:22.148Z,5.93
2018-06-27T06:40:50.993Z,7.50
2018-06-27T06:43:19.380Z,5.93
2018-06-27T06:45:47.767Z,6.10
2018-06-27T06:48:16.428Z,5.77
2018-06-27T06:50:44.734Z,7.10
2018-06-27T06:53:13.177Z,8.85
2018-06-27T06:55:41.586Z,5.20
2018-06-27T06:58:09.982Z,10.58
2018-06-27T07:00:38.343Z,4.70
2018-06-27T07:03:06.733Z,5.10
2018-06-27T07:05:35.150Z,6.75
2018-06-27T07:08:03.729Z,6.45
2018-06-27T07:10:32.167Z,6.75
2018-06-27T07:13:00.668Z,6.42
2018-06-27T07:15:29.080Z,6.30
2018-06-27T07:17:57.497Z,5.37
2018-06-27T07:20:25.869Z,5.50
2018-06-27T07:22:54.255Z,6.33
2018-06-27T07:25:22.721Z,5.25
2018-06-27T07:27:51.121Z,5.60
2018-06-27T07:30:19.659Z,7.00
2018-06-27T07:32:48.262Z,10.93
2018-06-27T07:35:16.682Z,5.12
2018-06-27T07:37:45.137Z,4.67
2018-06-27T07:40:13.581Z,5.03
2018-06-27T07:42:42.145Z,8.45
2018-06-27T07:45:10.570Z,6.03
2018-06-27T07:47:39.024Z,5.33
2018-06-27T07:50:07.457Z,7.70
2018-06-27T07:52:36.033Z,9.80
2018-06-27T07:55:04.480Z,8.13
2018-06-27T07:57:32.893Z,5.17
2018-06-27T08:00:01.322Z,4.70
2018-06-27T08:02:29.767Z,4.50
2018-06-27T08:04:58.217Z,3.85
2018-06-27T08:07:26.630Z,4.50
2018-06-27T08:09:55.042Z,4.87
2018-06-27T08:12:23.770Z,3.90
2018-06-27T08:14:52.126Z,6.30
2018-06-27T08:17:20.535Z,3.90
2018-06-27T08:19:49.161Z,4.53
2018-06-27T08:22:17.555Z,5.15
2018-06-27T08:24:46.006Z,5.45
2018-06-27T08:27:14.388Z,4.50
2018-06-27T08:29:42.809Z,5.12
2018-06-27T08:32:11.222Z,4.78
2018-06-27T08:34:39.641Z,6.33
2018-06-27T08:37:08.037Z,4.83
2018-06-27T08:39:36.457Z,5.22
2018-06-27T08:42:04.820Z,4.55
2018-06-27T08:44:33.222Z,6.40
2018-06-27T08:47:01.591Z,5.47
2018-06-27T08:49:29.994Z,5.00
2018-06-27T08:51:58.403Z,7.08
2018-06-27T08:54:26.857Z,5.17
2018-06-27T08:56:55.262Z,7.17
2018-06-27T08:59:23.690Z,5.25
2018-06-27T09:01:52.064Z,8.35
2018-06-27T09:04:20.480Z,5.60
2018-06-27T09:06:48.943Z,6.40
2018-06-27T09:09:17.350Z,5.75
2018-06-27T09:11:45.869Z,4.62
2018-06-27T09:14:14.325Z,5.72
2018-06-27T09:16:42.751Z,5.92
2018-06-27T09:19:11.296Z,4.70
2018-06-27T09:21:39.739Z,4.75
2018-06-27T09:24:08.185Z,6.22
2018-06-27T09:26:36.604Z,6.58
2018-06-27T09:29:05.133Z,7.85
2018-06-27T09:31:33.529Z,6.75
2018-06-27T09:34:02.040Z,4.80
2018-06-27T09:36:30.447Z,5.60
2018-06-27T09:38:58.922Z,3.75
2018-06-27T09:41:27.777Z,4.53
2018-06-27T09:43:56.318Z,6.22
2018-06-27T09:46:24.774Z,5.62
2018-06-27T09:48:53.215Z,7.40
2018-06-27T09:51:21.635Z,4.37
2018-06-27T09:53:50.056Z,6.17
2018-06-27T09:56:18.568Z,6.35
2018-06-27T09:58:46.998Z,5.22
2018-06-27T10:01:15.437Z,3.95
2018-06-27T10:03:44.048Z,4.42
2018-06-27T10:06:12.494Z,5.62
2018-06-27T10:08:41.002Z,4.55
2018-06-27T10:11:09.414Z,3.10
2018-06-27T10:13:37.817Z,3.72
2018-06-27T10:16:06.328Z,2.42
2018-06-27T10:18:34.953Z,3.75
2018-06-27T10:21:03.394Z,4.65
2018-06-27T10:23:31.921Z,5.95
2018-06-27T10:26:00.322Z,2.40
2018-06-27T10:28:31.039Z,1.57
2018-06-27T10:30:59.492Z,2.27
2018-06-27T10:33:27.904Z,1.30
2018-06-27T10:35:56.417Z,3.40
2018-06-27T10:38:24.791Z,2.35
2018-06-27T10:40:55.249Z,1.40
2018-06-27T10:43:23.618Z,3.20
2018-06-27T10:45:52.042Z,1.98
2018-06-27T10:48:20.510Z,3.22
2018-06-27T10:50:48.898Z,2.70
2018-06-27T10:53:17.283Z,3.15
2018-06-27T10:55:45.686Z,3.22
2018-06-27T10:58:14.095Z,4.80
2018-06-27T11:00:42.548Z,5.53
2018-06-27T11:03:10.966Z,2.92
2018-06-27T11:05:39.482Z,3.62
2018-06-27T11:08:07.840Z,4.03
2018-06-27T11:10:36.223Z,2.33
2018-06-27T11:13:05.413Z,3.62
2018-06-27T11:15:33.990Z,4.05
2018-06-27T11:18:02.958Z,2.67
2018-06-27T11:20:31.354Z,2.70
2018-06-27T11:22:59.942Z,2.37
2018-06-27T11:25:29.640Z,4.78
2018-06-27T11:27:58.077Z,4.78
2018-06-27T11:30:26.597Z,2.45
2018-06-27T11:32:55.094Z,1.90
2018-06-27T11:35:23.446Z,2.17
2018-06-27T11:37:51.876Z,1.90
2018-06-27T11:40:20.246Z,2.62
2018-06-27T11:42:49.074Z,2.00
2018-06-27T11:45:17.461Z,3.58
2018-06-27T11:47:45.883Z,5.28
2018-06-27T11:50:14.194Z,9.98
2018-06-27T11:52:42.636Z,3.83
2018-06-27T11:55:12.503Z,4.42
2018-06-27T11:57:42.343Z,2.55
2018-06-27T12:00:10.766Z,5.55
2018-06-27T12:02:39.206Z,5.62
2018-06-27T12:05:08.518Z,3.02
2018-06-27T12:07:36.977Z,3.00
2018-06-27T12:10:05.704Z,2.55
2018-06-27T12:12:34.176Z,5.15
2018-06-27T12:15:02.552Z,18.67
2018-06-27T12:17:31.224Z,4.60
2018-06-27T12:19:59.573Z,2.75
2018-06-27T12:22:28.161Z,5.70
2018-06-27T12:24:58.876Z,3.30
2018-06-27T12:27:27.499Z,2.10
2018-06-27T12:29:55.943Z,2.52
2018-06-27T12:32:24.492Z,2.12
2018-06-27T12:34:52.900Z,3.87
2018-06-27T12:37:21.339Z,2.98
2018-06-27T12:39:49.714Z,4.58
2018-06-27T12:42:18.185Z,3.00
2018-06-27T12:44:46.667Z,5.50
2018-06-27T12:47:15.913Z,4.75
2018-06-27T12:49:44.294Z,2.90
2018-06-27T12:52:12.711Z,3.87
2018-06-27T12:54:41.129Z,5.10
2018-06-27T12:57:09.558Z,2.40
2018-06-27T12:59:38.058Z,3.10
2018-06-27T13:02:07.198Z,3.10
2018-06-27T13:04:35.571Z,3.65
2018-06-27T13:07:04.166Z,4.50
2018-06-27T13:09:32.506Z,2.05
2018-06-27T13:12:00.987Z,1.77
2018-06-27T13:14:29.385Z,2.17
2018-06-27T13:16:57.841Z,2.25
2018-06-27T13:19:26.229Z,3.30
2018-06-27T13:21:54.828Z,1.52
2018-06-27T13:24:23.365Z,4.40
2018-06-27T13:26:51.875Z,2.02
2018-06-27T13:29:20.369Z,1.40
2018-06-27T13:31:48.788Z,1.98
2018-06-27T13:34:17.277Z,4.25
2018-06-27T13:36:45.736Z,1.90
2018-06-27T13:39:14.135Z,4.87
2018-06-27T13:41:42.523Z,5.08
2018-06-27T13:44:10.929Z,5.00
2018-06-27T13:46:39.310Z,5.30
2018-06-27T13:49:07.897Z,5.12
2018-06-27T13:51:36.308Z,5.83
2018-06-27T13:54:04.750Z,4.05
2018-06-27T13:56:33.116Z,2.47
2018-06-27T13:59:02.627Z,2.60
2018-06-27T14:01:31.340Z,3.00
2018-06-27T14:04:00.002Z,7.22
2018-06-27T14:06:28.636Z,4.50
2018-06-27T14:08:57.059Z,2.35
2018-06-27T14:11:25.475Z,1.70
2018-06-27T14:13:53.941Z,2.60
2018-06-27T14:16:22.433Z,6.30
2018-06-27T14:18:51.134Z,4.53
2018-06-27T14:21:19.835Z,6.10
2018-06-27T14:23:48.417Z,6.90
2018-06-27T14:26:16.841Z,3.35
2018-06-27T14:28:45.232Z,1.30
2018-06-27T14:31:13.646Z,1.00
2018-06-27T14:33:42.138Z,1.17
2018-06-27T14:36:10.542Z,1.40
2018-06-27T14:38:38.953Z,3.92
2018-06-27T14:41:07.386Z,9.78
2018-06-27T14:43:35.506Z,12.78
2018-06-27T14:46:03.985Z,8.78
2018-06-27T14:48:32.405Z,3.72
2018-06-27T14:51:00.839Z,2.87
2018-06-27T14:53:29.494Z,4.80
2018-06-27T14:55:57.913Z,3.08
2018-06-27T14:58:26.341Z,3.70
2018-06-27T15:00:54.773Z,2.47
2018-06-27T15:03:23.218Z,4.25
2018-06-27T15:05:51.683Z,2.42
2018-06-27T15:08:20.118Z,2.77
2018-06-27T15:10:48.531Z,3.80
2018-06-27T15:13:16.946Z,2.50
2018-06-27T15:15:45.345Z,4.25
2018-06-27T15:18:13.725Z,6.08
2018-06-27T15:20:42.291Z,7.90
2018-06-27T15:23:10.673Z,7.78
2018-06-27T15:25:39.155Z,3.45
2018-06-27T15:28:07.615Z,1.90
2018-06-27T15:30:36.067Z,1.45
2018-06-27T15:33:04.458Z,2.72
2018-06-27T15:35:32.888Z,2.98
2018-06-27T15:38:01.290Z,4.87
2018-06-27T15:40:29.676Z,3.60
2018-06-27T15:42:58.053Z,3.52
2018-06-27T15:45:26.500Z,1.85
2018-06-27T15:47:54.964Z,2.92
2018-06-27T15:50:23.394Z,4.72
2018-06-27T15:52:51.795Z,4.05
2018-06-27T15:55:20.330Z,2.67
2018-06-27T15:57:48.794Z,1.95
2018-06-27T16:00:17.162Z,5.05
2018-06-27T16:02:45.748Z,1.80
2018-06-27T16:05:14.187Z,3.02
2018-06-27T16:07:42.706Z,2.60
2018-06-27T16:10:11.593Z,3.95
2018-06-27T16:12:40.247Z,5.35
2018-06-27T16:15:08.756Z,3.37
2018-06-27T16:17:37.218Z,2.70
2018-06-27T16:20:06.105Z,5.78
2018-06-27T16:22:34.550Z,3.60
2018-06-27T16:25:03.258Z,4.92
2018-06-27T16:27:31.651Z,6.35
2018-06-27T16:30:00.250Z,9.58
2018-06-27T16:32:28.811Z,10.18
2018-06-27T16:34:57.210Z,9.58
2018-06-27T16:37:25.601Z,4.10
2018-06-27T16:39:54.038Z,3.65
2018-06-27T16:42:22.423Z,4.60
2018-06-27T16:44:50.857Z,6.42
2018-06-27T16:47:19.059Z,6.28
2018-06-27T16:49:47.493Z,11.10
2018-06-27T16:52:15.895Z,12.20
2018-06-27T16:54:44.360Z,7.45
2018-06-27T16:57:12.719Z,9.20
2018-06-27T16:59:41.087Z,6.97
2018-06-27T17:02:09.498Z,2.55
2018-06-27T17:04:37.949Z,5.33
2018-06-27T17:07:06.360Z,3.70
2018-06-27T17:09:34.754Z,2.95
2018-06-27T17:12:03.247Z,1.77
2018-06-27T17:14:31.633Z,1.40
2018-06-27T17:17:00.172Z,1.70
2018-06-27T17:19:34.089Z,1.87
2018-06-27T17:22:02.641Z,3.10
2018-06-27T17:24:31.236Z,2.52
2018-06-27T17:26:59.654Z,4.33
2018-06-27T17:29:28.077Z,2.40
2018-06-27T17:31:56.521Z,3.15
2018-06-27T17:34:25.052Z,9.98
2018-06-27T17:36:53.506Z,5.22
2018-06-27T17:39:21.911Z,5.00
2018-06-27T17:41:50.326Z,7.00
2018-06-27T17:44:18.854Z,2.90
2018-06-27T17:46:50.371Z,2.90
2018-06-27T17:49:18.753Z,2.08
2018-06-27T17:51:47.017Z,2.40
2018-06-27T17:54:15.627Z,11.97
2018-06-27T17:56:44.228Z,8.83
2018-06-27T17:59:12.634Z,7.83
2018-06-27T18:01:41.156Z,4.62
2018-06-27T18:04:09.541Z,3.47
2018-06-27T18:06:38.320Z,4.65
2018-06-27T18:09:09.401Z,2.80
2018-06-27T18:11:38.431Z,3.67
2018-06-27T18:14:06.937Z,5.25
2018-06-27T18:16:35.963Z,3.08
2018-06-27T18:19:04.366Z,2.60
2018-06-27T18:21:33.157Z,1.98
2018-06-27T18:24:01.698Z,3.70
2018-06-27T18:26:30.217Z,2.27
2018-06-27T18:28:58.679Z,1.95
2018-06-27T18:31:27.338Z,2.22
2018-06-27T18:33:55.881Z,2.62
2018-06-27T18:36:24.581Z,2.40
2018-06-27T18:38:53.170Z,2.40
2018-06-27T18:41:21.764Z,2.10
2018-06-27T18:43:50.784Z,2.02
2018-06-27T18:46:19.466Z,2.83
2018-06-27T18:48:48.539Z,2.15
2018-06-27T18:51:17.826Z,3.77
2018-06-27T18:53:46.795Z,3.42
2018-06-27T18:56:15.499Z,2.17
2018-06-27T18:58:44.019Z,2.30
2018-06-27T19:01:12.410Z,2.87
2018-06-27T19:03:40.851Z,5.58
2018-06-27T19:06:09.329Z,4.33
2018-06-27T19:08:38.437Z,3.47
2018-06-27T19:11:07.380Z,3.30
2018-06-27T19:13:35.979Z,3.37
2018-06-27T19:16:04.508Z,3.22
2018-06-27T19:18:32.896Z,3.00
2018-06-27T19:21:01.262Z,2.90
2018-06-27T19:23:30.294Z,3.12
2018-06-27T19:25:59.509Z,2.80
2018-06-27T19:28:28.581Z,2.98
2018-06-27T19:30:57.079Z,3.10
2018-06-27T19:33:25.496Z,4.22
2018-06-27T19:35:54.002Z,4.28
2018-06-27T19:38:22.374Z,5.72
2018-06-27T19:40:51.513Z,9.65
2018-06-27T19:43:20.799Z,6.97
2018-06-27T19:45:49.255Z,8.15
2018-06-27T19:48:17.593Z,7.70
2018-06-27T19:50:45.976Z,9.73
2018-06-27T19:53:14.901Z,8.40
2018-06-27T19:55:43.399Z,9.80
2018-06-27T19:58:12.215Z,8.75
2018-06-27T20:00:40.598Z,5.17
2018-06-27T20:03:09.391Z,5.92
2018-06-27T20:05:37.806Z,10.43
2018-06-27T20:08:06.303Z,9.55
2018-06-27T20:10:35.257Z,10.23
2018-06-27T20:13:03.652Z,13.40
2018-06-27T20:15:32.076Z,16.17
2018-06-27T20:18:00.449Z,6.33
2018-06-27T20:20:29.034Z,12.50
2018-06-27T20:22:57.689Z,11.73
2018-06-27T20:25:26.034Z,8.10
2018-06-27T20:27:54.426Z,5.42
2018-06-27T20:30:22.766Z,5.42
2018-06-27T20:32:51.115Z,5.37
2018-06-27T20:35:19.487Z,9.60
2018-06-27T20:37:47.813Z,8.53
2018-06-27T20:40:16.253Z,6.15
2018-06-27T20:42:44.616Z,3.52
2018-06-27T20:45:13.021Z,3.55
2018-06-27T20:47:41.351Z,2.83
2018-06-27T20:50:09.827Z,2.67
2018-06-27T20:52:38.194Z,2.62
2018-06-27T20:55:06.642Z,3.47
2018-06-27T20:57:34.991Z,2.92
2018-06-27T21:00:03.392Z,2.70
2018-06-27T21:02:31.789Z,3.02
2018-06-27T21:05:00.159Z,3.25
2018-06-27T21:07:28.526Z,2.70
2018-06-27T21:09:56.885Z,2.70
2018-06-27T21:12:25.219Z,2.25
2018-06-27T21:14:53.665Z,2.25
2018-06-27T21:17:22.007Z,2.20
2018-06-27T21:19:50.412Z,2.52
2018-06-27T21:22:18.784Z,3.00
2018-06-27T21:24:47.254Z,3.33
2018-06-27T21:27:15.599Z,2.30
2018-06-27T21:29:44.216Z,2.05
2018-06-27T21:32:12.622Z,2.58
2018-06-27T21:34:41.062Z,2.25
2018-06-27T21:37:09.386Z,2.10
2018-06-27T21:39:37.720Z,2.00
2018-06-27T21:42:06.085Z,2.47
2018-06-27T21:44:34.455Z,2.12
2018-06-27T21:47:02.758Z,2.22
2018-06-27T21:49:31.099Z,3.98
2018-06-27T21:51:59.417Z,3.80
2018-06-27T21:54:27.835Z,4.40
2018-06-27T21:56:56.163Z,3.70
2018-06-27T21:59:24.523Z,2.60
2018-06-27T22:01:52.884Z,3.40
2018-06-27T22:04:21.248Z,3.50
2018-06-27T22:06:49.631Z,4.92
2018-06-27T22:09:18.107Z,4.87
2018-06-27T22:11:46.525Z,4.25
2018-06-27T22:14:14.922Z,3.62
2018-06-27T22:16:43.312Z,4.50
2018-06-27T22:19:11.658Z,4.12
2018-06-27T22:21:40.143Z,3.10
2018-06-27T22:24:08.563Z,20.72
2018-06-27T22:26:36.946Z,13.48
2018-06-27T22:29:05.330Z,6.65
2018-06-27T22:31:33.826Z,3.05
2018-06-27T22:34:02.238Z,2.45
2018-06-27T22:36:30.374Z,3.95
2018-06-27T22:38:58.783Z,2.77
2018-06-27T22:41:27.219Z,2.55
2018-06-27T22:43:55.742Z,2.20
2018-06-27T22:46:24.158Z,1.90
2018-06-27T22:48:52.517Z,1.90
2018-06-27T22:51:20.951Z,2.35
2018-06-27T22:53:49.329Z,1.90
2018-06-27T22:56:17.701Z,1.90
2018-06-27T22:58:46.914Z,1.80
2018-06-27T23:01:15.343Z,2.02
2018-06-27T23:03:43.718Z,1.98
2018-06-27T23:06:12.174Z,1.75
2018-06-27T23:08:40.798Z,2.12
2018-06-27T23:11:09.338Z,1.85
2018-06-27T23:13:38.010Z,1.50
2018-06-27T23:16:06.713Z,1.98
2018-06-27T23:18:35.378Z,1.90
2018-06-27T23:21:03.928Z,2.52
2018-06-27T23:23:32.294Z,2.25
2018-06-27T23:26:00.714Z,2.65
2018-06-27T23:28:29.097Z,2.02
2018-06-27T23:30:57.478Z,1.60
2018-06-27T23:33:25.869Z,2.17
2018-06-27T23:35:54.279Z,2.00
2018-06-27T23:38:22.683Z,1.80
2018-06-27T23:40:51.074Z,2.30
2018-06-27T23:43:19.447Z,2.60
2018-06-27T23:45:47.833Z,2.00
2018-06-27T23:48:16.190Z,2.27
2018-06-27T23:50:44.606Z,1.70
2018-06-27T23:53:13.086Z,3.25
2018-06-27T23:55:41.522Z,4.67
2018-06-27T23:58:09.873Z,3.60
